Time;durP1;ratioP1;P1;durP2;ratioP2;P2;SDS_P1;SDS_P2;PMS_P1;PMS_P2;Temp;Humidity;BMP_temperature;BMP_pressure;BME280_temperature;BME280_humidity;BME280_pressure;Samples;Min_cycle;Max_cycle;Signal;HPM_P1;HPM_P2
2021/01/31 00:01:34;;;;;;;0.20;0.20;;;7.70;94.30;;;;;;5061336;28;20077;-85
2021/01/31 00:03:59;;;;;;;0.75;0.35;;;7.70;99.90;;;;;;5071449;28;20024;-84
2021/01/31 00:06:25;;;;;;;0.10;0.10;;;7.70;99.90;;;;;;5067824;28;20440;-84
2021/01/31 00:08:51;;;;;;;0.20;0.20;;;7.70;99.90;;;;;;5067752;28;20064;-84
2021/01/31 00:11:17;;;;;;;0.10;0.10;;;7.70;99.90;;;;;;5068307;28;20024;-84
2021/01/31 00:13:44;;;;;;;0.10;0.10;;;7.80;1.00;;;;;;5069098;28;20033;-84
2021/01/31 00:16:11;;;;;;;0.10;0.10;;;7.80;1.00;;;;;;5068317;28;20060;-84
2021/01/31 00:18:37;;;;;;;0.20;0.20;;;7.70;1.00;;;;;;5068319;28;20020;-84
2021/01/31 00:21:03;;;;;;;0.33;0.33;;;7.70;58.90;;;;;;5049013;28;20071;-84
2021/01/31 00:23:29;;;;;;;0.10;0.10;;;7.80;99.90;;;;;;5065145;28;20304;-84
2021/01/31 00:25:55;;;;;;;0.10;0.10;;;7.80;99.90;;;;;;5061465;28;20561;-84
2021/01/31 00:28:23;;;;;;;0.10;0.10;;;7.80;99.90;;;;;;5050391;28;20073;-84
2021/01/31 00:30:50;;;;;;;0.10;0.10;;;7.80;89.50;;;;;;5073989;28;20022;-84
2021/01/31 00:33:21;;;;;;;3.40;0.43;;;7.80;1.00;;;;;;5063501;28;20055;-84
2021/01/31 00:35:48;;;;;;;0.20;0.20;;;7.80;99.90;;;;;;5068369;28;20392;-84
2021/01/31 00:38:18;;;;;;;0.40;0.40;;;7.80;99.90;;;;;;5074976;28;20134;-84
2021/01/31 00:40:44;;;;;;;0.25;0.25;;;7.80;99.90;;;;;;5067568;28;20040;-84
2021/01/31 00:43:11;;;;;;;0.10;0.10;;;7.80;99.90;;;;;;5067922;28;20028;-84
2021/01/31 00:45:37;;;;;;;;;;;7.80;99.90;;;;;;5069323;28;20029;-84
2021/01/31 00:48:03;;;;;;;0.10;0.10;;;7.80;99.90;;;;;;5068562;28;20465;-84
2021/01/31 00:50:33;;;;;;;0.10;0.10;;;7.80;99.90;;;;;;5050430;28;20110;-84
2021/01/31 00:52:59;;;;;;;0.10;0.10;;;7.80;1.00;;;;;;5068119;28;20170;-84
2021/01/31 00:55:25;;;;;;;0.00;0.00;;;7.80;99.90;;;;;;5049298;28;20465;-84
2021/01/31 00:57:50;;;;;;;0.10;0.10;;;7.80;99.90;;;;;;5068333;28;20043;-84
2021/01/31 01:00:26;;;;;;;0.10;0.10;;;7.90;99.90;;;;;;5057814;28;20032;-85
2021/01/31 01:02:52;;;;;;;0.10;0.10;;;7.80;99.90;;;;;;5068214;28;20516;-85
2021/01/31 01:05:19;;;;;;;0.10;0.10;;;7.80;99.90;;;;;;5067090;28;20025;-85
2021/01/31 01:07:45;;;;;;;0.10;0.10;;;7.90;99.90;;;;;;5049577;28;20776;-85
2021/01/31 01:10:14;;;;;;;0.10;0.10;;;7.80;99.90;;;;;;5067922;28;20036;-85
2021/01/31 01:12:40;;;;;;;0.50;0.50;;;7.90;99.90;;;;;;5068465;28;20075;-85
2021/01/31 01:15:08;;;;;;;0.10;0.10;;;7.90;99.90;;;;;;5068710;28;20150;-85
2021/01/31 01:17:34;;;;;;;0.10;0.10;;;7.90;1.00;;;;;;5057332;28;20029;-85
2021/01/31 01:19:59;;;;;;;3.25;0.95;;;7.90;1.00;;;;;;5068065;28;20501;-85
2021/01/31 01:22:25;;;;;;;0.22;0.20;;;7.90;18.30;;;;;;5049993;28;20024;-85
2021/01/31 01:24:54;;;;;;;0.10;0.10;;;7.90;99.90;;;;;;5068330;28;20051;-85
2021/01/31 01:27:21;;;;;;;0.10;0.10;;;7.90;99.90;;;;;;5075664;28;20035;-85
2021/01/31 01:29:47;;;;;;;0.13;0.13;;;7.90;99.90;;;;;;5067932;28;20521;-85
2021/01/31 01:32:14;;;;;;;0.10;0.10;;;7.90;99.90;;;;;;5051043;28;20031;-85
2021/01/31 01:34:42;;;;;;;0.57;0.57;;;7.90;99.90;;;;;;5069362;28;20035;-85
2021/01/31 01:37:09;;;;;;;0.80;0.80;;;7.90;99.90;;;;;;5071041;28;20517;-85
2021/01/31 01:39:35;;;;;;;0.10;0.10;;;7.90;99.90;;;;;;5070954;28;20020;-85
2021/01/31 01:42:01;;;;;;;0.20;0.20;;;7.90;99.90;;;;;;5059091;28;20432;-85
2021/01/31 01:44:26;;;;;;;0.10;0.10;;;7.90;99.90;;;;;;5071239;28;20016;-84
2021/01/31 01:46:54;;;;;;;0.10;0.10;;;7.90;99.90;;;;;;5071067;28;20047;-84
2021/01/31 01:49:30;;;;;;;0.10;0.10;;;7.90;99.90;;;;;;5071213;28;20032;-84
2021/01/31 01:52:14;;;;;;;0.10;0.10;;;8.00;99.90;;;;;;5065835;28;20120;-84
2021/01/31 01:54:44;;;;;;;0.10;0.10;;;8.00;99.90;;;;;;5071248;28;20409;-85
2021/01/31 01:57:15;;;;;;;0.10;0.10;;;8.00;95.70;;;;;;5053291;28;20569;-84
2021/01/31 01:59:43;;;;;;;0.10;0.10;;;8.00;99.90;;;;;;5079570;28;20025;-85
2021/01/31 02:02:20;;;;;;;0.43;0.43;;;8.00;99.90;;;;;;5083339;28;20501;-84
2021/01/31 02:04:47;;;;;;;0.10;0.10;;;8.10;73.30;;;;;;5058042;28;20020;-84
2021/01/31 02:07:13;;;;;;;0.10;0.10;;;8.00;99.90;;;;;;5048578;28;20036;-84
2021/01/31 02:09:45;;;;;;;0.10;0.10;;;8.10;1.00;;;;;;5056633;28;20035;-84
2021/01/31 02:12:12;;;;;;;0.10;0.10;;;8.10;1.00;;;;;;5049240;28;20067;-84
2021/01/31 02:14:38;;;;;;;0.10;0.10;;;8.10;1.00;;;;;;5069929;28;20024;-84
2021/01/31 02:17:49;;;;;;;0.10;0.10;;;8.20;99.90;;;;;;5057680;28;20036;-85
2021/01/31 02:20:43;;;;;;;0.10;0.10;;;8.20;99.90;;;;;;4977317;28;20137;-85
2021/01/31 02:23:42;;;;;;;0.10;0.10;;;8.20;1.00;;;;;;4994389;28;20038;-85
2021/01/31 02:26:10;;;;;;;0.10;0.10;;;8.20;1.00;;;;;;4996464;28;20092;-85
2021/01/31 02:28:55;;;;;;;0.10;0.10;;;8.10;1.00;;;;;;4991033;28;20030;-85
2021/01/31 02:31:32;;;;;;;0.10;0.10;;;8.20;1.00;;;;;;4999573;28;20038;-85
2021/01/31 02:34:09;;;;;;;0.10;0.10;;;8.20;1.00;;;;;;4990776;28;20068;-85
2021/01/31 02:36:56;;;;;;;0.10;0.10;;;8.30;20.50;;;;;;4999120;28;20034;-85
2021/01/31 02:39:45;;;;;;;0.10;0.10;;;8.30;99.90;;;;;;4987558;28;20052;-85
2021/01/31 02:42:31;;;;;;;0.10;0.10;;;8.30;99.90;;;;;;4984188;28;20072;-85
2021/01/31 02:45:30;;;;;;;0.10;0.10;;;8.30;1.00;;;;;;4971303;28;20408;-85
2021/01/31 02:48:02;;;;;;;0.10;0.10;;;8.30;99.90;;;;;;4987477;28;20038;-85
2021/01/31 02:50:34;;;;;;;1.73;1.63;;;8.30;99.90;;;;;;4992764;28;20050;-85
2021/01/31 02:53:07;;;;;;;0.25;0.25;;;8.30;99.90;;;;;;4993613;28;20093;-85
2021/01/31 02:55:37;;;;;;;0.10;0.10;;;8.40;99.90;;;;;;4989843;28;20045;-85
2021/01/31 02:58:09;;;;;;;0.10;0.10;;;8.40;99.90;;;;;;5046635;28;20036;-85
2021/01/31 03:00:51;;;;;;;1.60;0.88;;;8.40;99.90;;;;;;5070011;28;20016;-85
2021/01/31 03:03:29;;;;;;;0.10;0.10;;;8.40;99.90;;;;;;5068040;28;20073;-84
2021/01/31 03:05:57;;;;;;;0.10;0.10;;;8.40;99.90;;;;;;5069556;28;20033;-85
2021/01/31 03:08:38;;;;;;;1.75;1.20;;;8.50;99.90;;;;;;5069845;28;20154;-85
2021/01/31 03:11:38;;;;;;;0.10;0.10;;;8.40;99.90;;;;;;5050992;28;20524;-84
2021/01/31 03:14:10;;;;;;;0.10;0.10;;;8.50;99.90;;;;;;5044101;28;20607;-84
2021/01/31 03:16:38;;;;;;;0.10;0.10;;;8.50;99.90;;;;;;5051130;28;20119;-84
2021/01/31 03:19:16;;;;;;;0.15;0.15;;;8.50;99.90;;;;;;5064023;28;20032;-84
2021/01/31 03:21:47;;;;;;;0.10;0.10;;;8.50;99.90;;;;;;5068286;28;20036;-84
2021/01/31 03:24:27;;;;;;;0.10;0.10;;;8.50;99.90;;;;;;5069293;28;20056;-85
2021/01/31 03:27:32;;;;;;;0.10;0.10;;;8.60;99.90;;;;;;5051181;28;20028;-85
2021/01/31 03:29:58;;;;;;;0.38;0.38;;;8.60;99.90;;;;;;5055128;28;20082;-85
2021/01/31 03:32:43;;;;;;;0.10;0.10;;;8.60;99.90;;;;;;5050346;28;20028;-84
2021/01/31 03:35:13;;;;;;;2.13;1.65;;;8.60;99.90;;;;;;5054340;28;20036;-84
2021/01/31 03:37:50;;;;;;;0.10;0.10;;;8.60;99.90;;;;;;5049681;28;20025;-84
2021/01/31 03:40:18;;;;;;;0.10;0.10;;;8.60;99.90;;;;;;5062688;28;20024;-85
2021/01/31 03:42:45;;;;;;;0.10;0.10;;;8.60;99.90;;;;;;5067250;28;20044;-84
2021/01/31 03:45:13;;;;;;;0.10;0.10;;;8.60;99.90;;;;;;5051253;28;20039;-85
2021/01/31 03:47:48;;;;;;;0.10;0.10;;;8.60;99.90;;;;;;5068473;28;20021;-85
2021/01/31 03:50:15;;;;;;;0.10;0.10;;;8.60;99.90;;;;;;5050693;28;20041;-84
2021/01/31 03:52:41;;;;;;;0.10;0.10;;;8.70;99.90;;;;;;5050048;28;20028;-85
2021/01/31 03:55:08;;;;;;;0.10;0.10;;;8.70;99.90;;;;;;5068920;28;20089;-85
2021/01/31 03:57:36;;;;;;;0.30;0.30;;;8.70;99.90;;;;;;5067076;28;20628;-85
2021/01/31 04:00:24;;;;;;;0.10;0.10;;;8.70;99.90;;;;;;5068815;28;20027;-85
2021/01/31 04:03:04;;;;;;;0.10;0.10;;;8.70;99.90;;;;;;5068534;28;20025;-85
2021/01/31 04:05:33;;;;;;;0.10;0.10;;;8.70;99.90;;;;;;5068404;28;20052;-85
2021/01/31 04:08:04;;;;;;;0.10;0.10;;;8.70;99.90;;;;;;5068718;28;20109;-85
2021/01/31 04:10:29;;;;;;;3.53;1.50;;;8.70;71.80;;;;;;5067087;28;20411;-85
2021/01/31 04:12:58;;;;;;;0.03;0.03;;;8.70;1.00;;;;;;5068278;28;20032;-84
2021/01/31 04:15:40;;;;;;;0.10;0.10;;;8.80;99.90;;;;;;5069212;28;20029;-84
2021/01/31 04:18:07;;;;;;;0.17;0.17;;;8.70;99.90;;;;;;5050563;28;20028;-84
2021/01/31 04:20:34;;;;;;;0.10;0.10;;;8.80;99.90;;;;;;5050040;28;20140;-85
2021/01/31 04:23:00;;;;;;;0.10;0.10;;;8.80;1.00;;;;;;5067651;28;20029;-84
2021/01/31 04:25:29;;;;;;;0.20;0.20;;;8.80;99.90;;;;;;5067010;28;20039;-84
2021/01/31 04:27:55;;;;;;;0.10;0.10;;;8.80;22.50;;;;;;5067857;28;20043;-85
2021/01/31 04:30:22;;;;;;;0.10;0.10;;;8.80;99.90;;;;;;5068331;28;20039;-85
2021/01/31 04:32:47;;;;;;;0.43;0.43;;;8.80;1.00;;;;;;5049667;28;20040;-85
2021/01/31 04:35:15;;;;;;;26.63;1.38;;;8.80;99.90;;;;;;5067143;28;20024;-85
2021/01/31 04:37:41;;;;;;;0.10;0.10;;;8.80;1.00;;;;;;5067620;28;20033;-84
2021/01/31 04:40:11;;;;;;;0.10;0.10;;;8.80;99.90;;;;;;5067534;28;20099;-84
2021/01/31 04:42:37;;;;;;;0.10;0.10;;;8.80;99.90;;;;;;5074247;28;20116;-84
2021/01/31 04:45:08;;;;;;;0.10;0.10;;;8.80;99.90;;;;;;5067797;28;20092;-84
2021/01/31 04:47:39;;;;;;;3.83;1.58;;;8.80;58.10;;;;;;5055071;28;20052;-84
2021/01/31 04:50:27;;;;;;;0.10;0.10;;;8.80;1.00;;;;;;5049357;28;20044;-84
2021/01/31 04:53:05;;;;;;;0.15;0.15;;;8.90;99.90;;;;;;5068191;28;20036;-85
2021/01/31 04:56:01;;;;;;;0.10;0.10;;;8.80;99.90;;;;;;5067863;28;20036;-85
2021/01/31 04:58:53;;;;;;;0.10;0.10;;;8.90;99.90;;;;;;5074366;28;20035;-85
2021/01/31 05:01:22;;;;;;;0.10;0.10;;;8.90;99.90;;;;;;5050411;28;20032;-85
2021/01/31 05:03:54;;;;;;;0.20;0.20;;;8.90;1.00;;;;;;5068334;28;20510;-85
2021/01/31 05:06:22;;;;;;;0.10;0.10;;;8.90;99.90;;;;;;5067970;28;20023;-84
2021/01/31 05:08:49;;;;;;;0.10;0.10;;;8.90;99.90;;;;;;5071826;28;20086;-84
2021/01/31 05:11:27;;;;;;;0.10;0.10;;;8.90;1.00;;;;;;5071957;28;20024;-87
2021/01/31 05:14:04;;;;;;;0.10;0.10;;;8.90;99.90;;;;;;5062962;28;20035;-85
2021/01/31 05:16:30;;;;;;;0.10;0.10;;;8.90;99.90;;;;;;5071875;28;20035;-85
2021/01/31 05:19:01;;;;;;;0.10;0.10;;;9.00;1.00;;;;;;5071445;28;20032;-85
2021/01/31 05:21:30;;;;;;;0.10;0.10;;;9.00;99.90;;;;;;5053334;28;20062;-85
2021/01/31 05:24:06;;;;;;;0.10;0.10;;;9.00;99.90;;;;;;5071303;28;20036;-85
2021/01/31 05:26:37;;;;;;;0.10;0.10;;;9.00;99.90;;;;;;5078994;28;20036;-85
2021/01/31 05:29:06;;;;;;;1.13;1.05;;;9.00;99.90;;;;;;5071495;28;20043;-85
2021/01/31 05:31:35;;;;;;;0.10;0.10;;;9.00;99.90;;;;;;5071811;28;20036;-85
2021/01/31 05:34:02;;;;;;;0.00;0.00;;;9.00;99.90;;;;;;5070865;28;20098;-85
2021/01/31 05:36:33;;;;;;;0.10;0.10;;;9.00;99.90;;;;;;5057030;28;20028;-85
2021/01/31 05:38:59;;;;;;;0.10;0.10;;;9.00;99.90;;;;;;5070450;28;20398;-85
2021/01/31 05:41:28;;;;;;;0.10;0.10;;;9.00;99.90;;;;;;5071139;28;20016;-84
2021/01/31 05:44:08;;;;;;;0.10;0.10;;;9.00;99.90;;;;;;5071245;28;20028;-84
2021/01/31 05:46:41;;;;;;;0.20;0.20;;;9.00;99.90;;;;;;5071249;28;20702;-84
2021/01/31 05:49:31;;;;;;;0.10;0.10;;;9.00;99.90;;;;;;5070798;28;20091;-84
2021/01/31 05:51:57;;;;;;;0.10;0.10;;;9.00;99.90;;;;;;5060486;28;20040;-85
2021/01/31 05:54:32;;;;;;;0.10;0.10;;;9.00;99.90;;;;;;5071018;28;20555;-84
2021/01/31 05:56:58;;;;;;;0.10;0.10;;;9.00;99.90;;;;;;5070473;28;20041;-84
2021/01/31 05:59:37;;;;;;;0.10;0.10;;;9.00;99.90;;;;;;5055665;28;20085;-84
2021/01/31 06:02:04;;;;;;;0.10;0.10;;;9.00;99.90;;;;;;5069992;28;20122;-84
2021/01/31 06:04:29;;;;;;;0.10;0.10;;;9.00;99.90;;;;;;5071392;28;20025;-85
2021/01/31 06:07:18;;;;;;;0.10;0.10;;;9.00;99.90;;;;;;5052763;28;20059;-84
2021/01/31 06:09:49;;;;;;;0.10;0.10;;;9.00;99.90;;;;;;5071067;28;20028;-86
2021/01/31 06:12:25;;;;;;;0.10;0.10;;;9.00;99.90;;;;;;5057077;28;20031;-85
2021/01/31 06:15:08;;;;;;;0.10;0.10;;;9.00;1.00;;;;;;5075429;28;20033;-85
2021/01/31 06:17:35;;;;;;;0.10;0.10;;;9.00;99.90;;;;;;5070197;28;20809;-85
2021/01/31 06:20:30;;;;;;;0.10;0.10;;;9.00;71.00;;;;;;5069653;28;20052;-85
2021/01/31 06:22:56;;;;;;;0.20;0.20;;;9.00;99.90;;;;;;5057607;28;20036;-85
2021/01/31 06:25:27;;;;;;;0.10;0.10;;;9.00;99.90;;;;;;5069965;28;20028;-85
2021/01/31 06:28:12;;;;;;;0.10;0.10;;;9.00;99.90;;;;;;5070688;28;20796;-85
2021/01/31 06:30:47;;;;;;;0.10;0.10;;;9.10;99.90;;;;;;5069584;28;20032;-85
2021/01/31 06:33:13;;;;;;;0.10;0.10;;;9.10;99.90;;;;;;5070344;28;20051;-86
2021/01/31 06:35:39;;;;;;;0.10;0.10;;;9.00;99.90;;;;;;5069968;28;20078;-85
2021/01/31 06:38:23;;;;;;;0.10;0.10;;;9.00;99.90;;;;;;5069975;28;20049;-85
2021/01/31 06:41:12;;;;;;;0.10;0.10;;;9.00;99.90;;;;;;5051949;28;20027;-85
2021/01/31 06:43:59;;;;;;;11.05;2.05;;;9.00;99.90;;;;;;5069127;28;20032;-85
2021/01/31 06:46:53;;;;;;;0.10;0.10;;;9.00;99.90;;;;;;5066717;28;20020;-85
2021/01/31 06:49:40;;;;;;;0.10;0.10;;;9.00;99.90;;;;;;5050375;28;20100;-85
2021/01/31 06:52:15;;;;;;;0.10;0.10;;;9.00;99.90;;;;;;5051259;28;20452;-86
2021/01/31 06:55:02;;;;;;;0.10;0.10;;;9.00;99.90;;;;;;5065560;28;20529;-85
2021/01/31 06:57:37;;;;;;;0.10;0.10;;;9.00;99.90;;;;;;5068643;28;20033;-85
2021/01/31 07:00:06;;;;;;;0.10;0.10;;;9.10;99.90;;;;;;5078116;28;20059;-85
2021/01/31 07:02:58;;;;;;;0.10;0.10;;;9.10;99.90;;;;;;5070388;28;20025;-85
2021/01/31 07:05:30;;;;;;;0.10;0.10;;;9.10;99.90;;;;;;5051868;28;20769;-85
2021/01/31 07:07:56;;;;;;;0.10;0.10;;;9.10;99.90;;;;;;5069110;28;20036;-85
2021/01/31 07:10:33;;;;;;;0.10;0.10;;;9.10;99.90;;;;;;5069145;28;20493;-85
2021/01/31 07:13:22;;;;;;;0.10;0.10;;;9.10;99.90;;;;;;5066283;28;20058;-87
2021/01/31 07:16:08;;;;;;;0.10;0.10;;;9.10;99.90;;;;;;5048807;28;20397;-86
2021/01/31 07:18:41;;;;;;;0.10;0.10;;;9.10;99.90;;;;;;5038598;28;20045;-86
2021/01/31 07:21:17;;;;;;;0.20;0.20;;;9.40;99.90;;;;;;5069751;28;20044;-87
2021/01/31 07:23:46;;;;;;;0.38;0.38;;;9.30;99.90;;;;;;5068607;28;20032;-86
2021/01/31 07:26:14;;;;;;;0.47;0.47;;;9.30;99.90;;;;;;5065556;28;20107;-87
2021/01/31 07:28:43;;;;;;;0.80;0.73;;;9.40;99.90;;;;;;5050940;28;20060;-87
2021/01/31 07:31:13;;;;;;;0.47;0.47;;;9.40;99.90;;;;;;5051275;28;20059;-86
2021/01/31 07:34:04;;;;;;;11.70;3.30;;;9.40;99.90;;;;;;5069686;28;20144;-87
2021/01/31 07:36:38;;;;;;;0.17;0.17;;;9.40;99.90;;;;;;5049161;28;20093;-87
2021/01/31 07:39:17;;;;;;;0.15;0.15;;;9.40;99.90;;;;;;5069055;28;20071;-87
2021/01/31 07:41:55;;;;;;;20.08;1.60;;;9.50;99.90;;;;;;5069169;28;20024;-87
2021/01/31 07:44:27;;;;;;;0.10;0.10;;;9.50;99.90;;;;;;5069356;28;20107;-86
2021/01/31 07:46:57;;;;;;;0.10;0.10;;;9.60;99.90;;;;;;5057597;28;20036;-86
2021/01/31 07:49:23;;;;;;;0.30;0.30;;;9.60;99.90;;;;;;5054347;28;20033;-87
2021/01/31 07:51:49;;;;;;;0.65;0.65;;;9.70;99.90;;;;;;5070537;28;20795;-87
2021/01/31 07:54:35;;;;;;;0.20;0.20;;;9.70;99.90;;;;;;5066624;28;20067;-87
2021/01/31 07:57:19;;;;;;;2.85;2.03;;;11.30;99.90;;;;;;5064850;28;20029;-87
2021/01/31 07:59:45;;;;;;;0.43;0.43;;;11.60;99.90;;;;;;5073256;28;20024;-86
2021/01/31 08:02:34;;;;;;;0.20;0.20;;;12.50;99.90;;;;;;5068893;28;20086;-87
2021/01/31 08:05:00;;;;;;;0.35;0.35;;;12.50;99.90;;;;;;5050211;28;20036;-90
2021/01/31 08:08:05;;;;;;;0.10;0.10;;;12.90;99.90;;;;;;5068772;28;20013;-90
2021/01/31 08:10:50;;;;;;;0.30;0.30;;;13.00;99.90;;;;;;5040150;28;20486;-89
2021/01/31 08:13:41;;;;;;;0.30;0.30;;;13.00;99.90;;;;;;5050053;28;20068;-88
2021/01/31 08:16:38;;;;;;;0.20;0.20;;;12.90;99.90;;;;;;5051195;28;20406;-88
2021/01/31 08:19:07;;;;;;;0.30;0.30;;;13.00;99.90;;;;;;5066537;28;20097;-89
2021/01/31 08:22:05;;;;;;;0.30;0.30;;;12.90;99.90;;;;;;5076253;28;20557;-89
2021/01/31 08:24:57;;;;;;;0.10;0.10;;;13.00;99.90;;;;;;5058585;28;20036;-87
2021/01/31 08:27:46;;;;;;;0.80;0.80;;;13.00;99.90;;;;;;5068312;28;20019;-87
2021/01/31 08:30:27;;;;;;;0.10;0.10;;;13.10;99.90;;;;;;5047154;28;20050;-86
2021/01/31 08:33:03;;;;;;;0.50;0.50;;;13.20;99.90;;;;;;5064849;28;20025;-89
2021/01/31 08:35:43;;;;;;;1.10;1.00;;;13.30;99.90;;;;;;5065268;28;20029;-87
2021/01/31 08:38:24;;;;;;;0.10;0.10;;;13.40;99.90;;;;;;5067887;28;20032;-87
2021/01/31 08:41:03;;;;;;;0.10;0.10;;;13.30;99.90;;;;;;5057782;28;20029;-88
2021/01/31 08:43:30;;;;;;;0.30;0.30;;;13.30;99.90;;;;;;5043126;28;20026;-88
2021/01/31 08:46:20;;;;;;;0.10;0.10;;;13.30;99.90;;;;;;5054260;28;20025;-88
2021/01/31 08:49:10;;;;;;;0.10;0.10;;;13.30;99.90;;;;;;5051910;28;20555;-87
2021/01/31 08:51:38;;;;;;;1.00;0.90;;;13.40;99.90;;;;;;5069804;28;20063;-86
2021/01/31 08:54:20;;;;;;;0.13;0.13;;;13.40;99.90;;;;;;5057822;28;20077;-85
2021/01/31 08:56:49;;;;;;;0.10;0.10;;;13.40;99.90;;;;;;5057935;28;20025;-86
2021/01/31 08:59:29;;;;;;;0.22;0.22;;;13.50;99.90;;;;;;5057175;28;20082;-86
2021/01/31 09:02:16;;;;;;;0.30;0.30;;;13.50;99.90;;;;;;5062201;28;20032;-88
2021/01/31 09:04:51;;;;;;;0.10;0.10;;;13.70;99.90;;;;;;5057879;28;20482;-88
2021/01/31 09:07:27;;;;;;;0.20;0.20;;;13.70;99.90;;;;;;5057463;28;20099;-88
2021/01/31 09:10:05;;;;;;;0.68;0.68;;;13.70;99.90;;;;;;5062197;28;20111;-88
2021/01/31 09:12:31;;;;;;;6.90;2.47;;;13.70;99.90;;;;;;5057862;28;20041;-88
2021/01/31 09:15:20;;;;;;;9.23;3.30;;;13.70;99.90;;;;;;5034780;28;20499;-88
2021/01/31 09:17:47;;;;;;;1.85;0.90;;;13.80;99.90;;;;;;5056918;28;20092;-88
2021/01/31 09:20:25;;;;;;;3.10;1.75;;;13.80;99.90;;;;;;5049401;28;20082;-88
2021/01/31 09:22:54;;;;;;;2.53;1.48;;;13.80;99.90;;;;;;5044982;28;20118;-87
2021/01/31 09:25:22;;;;;;;1.38;1.35;;;14.00;99.90;;;;;;5043828;28;20024;-87
2021/01/31 09:28:03;;;;;;;2.08;1.75;;;14.00;99.90;;;;;;5049958;28;20778;-88
2021/01/31 09:30:30;;;;;;;1.42;1.35;;;14.10;99.90;;;;;;5064085;28;20020;-88
2021/01/31 09:33:22;;;;;;;;;;;14.10;99.90;;;;;;5040822;28;20076;-88
2021/01/31 09:35:48;;;;;;;2.35;2.17;;;14.10;99.90;;;;;;5058275;28;20292;-89
2021/01/31 09:38:24;;;;;;;3.33;1.27;;;14.10;99.90;;;;;;5061242;28;20525;-88
2021/01/31 09:40:55;;;;;;;0.20;0.20;;;14.20;99.90;;;;;;5043203;28;20443;-87
2021/01/31 09:43:25;;;;;;;0.17;0.17;;;14.10;99.90;;;;;;5063233;28;20449;-87
2021/01/31 09:45:54;;;;;;;0.40;0.40;;;14.10;99.90;;;;;;5064483;28;20021;-87
2021/01/31 09:48:23;;;;;;;0.50;0.50;;;14.20;99.90;;;;;;5064758;28;20081;-88
2021/01/31 09:50:58;;;;;;;0.60;0.60;;;14.10;99.90;;;;;;5049915;28;20044;-87
2021/01/31 09:53:40;;;;;;;0.35;0.35;;;13.90;99.90;;;;;;5069598;28;20090;-87
2021/01/31 09:56:12;;;;;;;0.10;0.10;;;13.80;99.90;;;;;;5068491;28;20024;-87
2021/01/31 09:58:46;;;;;;;1.27;0.82;;;13.90;99.90;;;;;;5058761;28;20029;-87
2021/01/31 10:01:33;;;;;;;0.20;0.20;;;13.90;99.90;;;;;;5063556;28;20017;-86
2021/01/31 10:04:02;;;;;;;0.57;0.57;;;13.90;99.90;;;;;;5043354;28;20035;-87
2021/01/31 10:06:40;;;;;;;0.25;0.25;;;13.80;99.90;;;;;;5042783;28;20067;-88
2021/01/31 10:09:06;;;;;;;0.57;0.57;;;13.80;99.90;;;;;;5046572;28;20078;-88
2021/01/31 10:11:41;;;;;;;0.10;0.10;;;13.70;99.90;;;;;;5048104;28;20504;-87
2021/01/31 10:14:12;;;;;;;0.40;0.40;;;13.60;99.90;;;;;;5070598;28;20051;-87
2021/01/31 10:16:41;;;;;;;0.10;0.10;;;13.50;99.90;;;;;;5044520;28;20082;-87
2021/01/31 10:19:16;;;;;;;0.10;0.10;;;13.30;99.90;;;;;;5064599;28;20021;-87
2021/01/31 10:21:57;;;;;;;0.20;0.20;;;13.30;99.90;;;;;;5059818;28;20021;-86
2021/01/31 10:24:32;;;;;;;0.20;0.20;;;13.40;99.90;;;;;;5072839;28;20498;-86
2021/01/31 10:27:21;;;;;;;0.20;0.20;;;13.50;99.90;;;;;;5063060;28;20025;-88
2021/01/31 10:29:49;;;;;;;0.50;0.45;;;13.50;99.90;;;;;;5038209;28;20025;-88
2021/01/31 10:32:28;;;;;;;0.70;0.47;;;13.30;99.90;;;;;;5040994;28;20016;-87
2021/01/31 10:34:56;;;;;;;0.10;0.10;;;13.40;99.90;;;;;;5039552;28;20410;-86
2021/01/31 10:37:37;;;;;;;0.28;0.28;;;13.40;99.90;;;;;;5061129;28;20024;-87
2021/01/31 10:40:07;;;;;;;0.28;0.28;;;13.30;99.90;;;;;;5059760;28;20029;-86
2021/01/31 10:42:34;;;;;;;2.65;1.23;;;13.30;99.90;;;;;;5038612;28;20021;-87
2021/01/31 10:45:24;;;;;;;0.10;0.10;;;13.10;99.90;;;;;;5062162;28;20505;-87
2021/01/31 10:47:55;;;;;;;0.17;0.17;;;13.20;99.90;;;;;;5047772;28;21760;-87
2021/01/31 10:50:22;;;;;;;0.20;0.20;;;13.30;99.90;;;;;;5048869;28;20063;-87
2021/01/31 10:52:49;;;;;;;1.38;1.27;;;13.40;99.90;;;;;;5043068;28;20115;-87
2021/01/31 10:55:15;;;;;;;0.10;0.10;;;13.50;99.90;;;;;;5059816;28;20037;-87
2021/01/31 10:57:41;;;;;;;3.35;0.70;;;13.50;99.90;;;;;;5051564;28;20021;-86
2021/01/31 11:00:09;;;;;;;0.10;0.10;;;13.50;99.90;;;;;;5069240;28;20012;-86
2021/01/31 11:02:36;;;;;;;0.10;0.10;;;13.50;99.90;;;;;;5070497;28;20016;-86
2021/01/31 11:05:05;;;;;;;0.13;0.13;;;13.40;99.90;;;;;;5065421;28;20025;-86
2021/01/31 11:07:31;;;;;;;0.10;0.10;;;13.40;99.90;;;;;;5064959;28;20119;-87
2021/01/31 11:09:57;;;;;;;0.10;0.10;;;13.30;99.90;;;;;;5063386;28;20451;-87
2021/01/31 11:12:23;;;;;;;0.10;0.10;;;13.20;99.90;;;;;;5065082;28;20536;-87
2021/01/31 11:14:49;;;;;;;0.27;0.27;;;13.10;99.90;;;;;;5066178;28;20044;-87
2021/01/31 11:17:15;;;;;;;0.30;0.30;;;13.40;99.90;;;;;;5049610;28;20049;-87
2021/01/31 11:19:41;;;;;;;0.55;0.55;;;13.30;99.90;;;;;;5067164;28;20044;-86
2021/01/31 11:22:06;;;;;;;0.10;0.10;;;13.30;99.90;;;;;;5048792;28;20032;-87
2021/01/31 11:24:32;;;;;;;0.20;0.20;;;13.30;99.90;;;;;;5068202;28;20024;-87
2021/01/31 11:26:58;;;;;;;0.10;0.10;;;13.50;99.90;;;;;;5069124;28;20064;-86
2021/01/31 11:29:24;;;;;;;0.25;0.25;;;13.40;99.90;;;;;;5066865;28;20103;-87
2021/01/31 11:31:51;;;;;;;0.43;0.43;;;13.40;99.90;;;;;;5066729;28;20076;-87
2021/01/31 11:34:16;;;;;;;2.30;0.70;;;13.40;99.90;;;;;;5066537;28;20055;-87
2021/01/31 11:36:42;;;;;;;0.10;0.10;;;13.50;99.90;;;;;;5066799;28;20097;-87
2021/01/31 11:39:08;;;;;;;1.13;0.75;;;13.50;99.90;;;;;;5048812;28;20025;-87
2021/01/31 11:41:37;;;;;;;0.50;0.50;;;13.90;99.90;;;;;;5052254;28;20667;-87
2021/01/31 11:44:12;;;;;;;0.10;0.10;;;13.60;99.90;;;;;;5066530;28;20025;-88
2021/01/31 11:46:37;;;;;;;0.10;0.10;;;13.60;99.90;;;;;;5050333;28;20078;-87
2021/01/31 11:49:03;;;;;;;0.32;0.32;;;13.60;99.90;;;;;;5065734;28;20048;-87
2021/01/31 11:51:29;;;;;;;1.07;0.67;;;13.70;99.90;;;;;;5053152;28;20056;-87
2021/01/31 11:53:55;;;;;;;0.40;0.40;;;13.80;99.90;;;;;;5051854;28;20127;-87
2021/01/31 11:56:21;;;;;;;0.55;0.55;;;13.80;99.90;;;;;;5067924;28;20124;-87
2021/01/31 11:58:47;;;;;;;0.60;0.60;;;13.60;99.90;;;;;;5044378;28;20017;-87
2021/01/31 12:01:14;;;;;;;0.20;0.20;;;13.40;99.90;;;;;;5066099;28;20036;-88
2021/01/31 12:03:43;;;;;;;0.10;0.10;;;13.50;99.90;;;;;;5048466;28;20026;-85
2021/01/31 12:06:09;;;;;;;0.60;0.60;;;13.60;99.90;;;;;;5066143;28;20017;-88
2021/01/31 12:08:35;;;;;;;0.30;0.30;;;13.90;99.90;;;;;;5068147;28;20090;-87
2021/01/31 12:11:01;;;;;;;14.45;0.70;;;13.70;99.90;;;;;;5048352;28;20521;-87
2021/01/31 12:13:27;;;;;;;0.10;0.10;;;13.60;99.90;;;;;;5064768;28;20017;-86
2021/01/31 12:15:53;;;;;;;0.50;0.50;;;13.60;99.90;;;;;;5061216;28;20040;-86
2021/01/31 12:18:19;;;;;;;0.27;0.27;;;13.40;99.90;;;;;;5066175;28;20118;-87
2021/01/31 12:20:45;;;;;;;0.70;0.70;;;13.70;99.90;;;;;;5060469;28;20087;-87
2021/01/31 12:23:12;;;;;;;0.20;0.20;;;13.80;99.90;;;;;;5058209;28;20438;-87
2021/01/31 12:25:39;;;;;;;;;;;13.60;99.90;;;;;;5062178;28;20076;-86
2021/01/31 12:28:07;;;;;;;0.10;0.10;;;13.50;99.90;;;;;;5055975;28;20340;-86
2021/01/31 12:30:35;;;;;;;0.22;0.22;;;13.20;99.90;;;;;;5027598;28;20394;-86
2021/01/31 12:33:03;;;;;;;0.10;0.10;;;13.20;99.90;;;;;;5059496;28;20044;-86
2021/01/31 12:35:30;;;;;;;0.10;0.10;;;13.50;99.90;;;;;;5036620;28;20592;-86
2021/01/31 12:37:57;;;;;;;0.10;0.10;;;13.40;99.90;;;;;;5049751;28;20559;-86
2021/01/31 12:40:24;;;;;;;;;;;13.60;99.90;;;;;;5057379;28;20078;-86
2021/01/31 12:42:50;;;;;;;0.20;0.20;;;13.60;99.90;;;;;;5038585;28;19908;-87
2021/01/31 12:45:18;;;;;;;0.10;0.10;;;13.70;99.90;;;;;;5034536;28;20029;-85
2021/01/31 12:47:45;;;;;;;0.73;0.73;;;14.00;99.90;;;;;;5055219;28;20568;-86
2021/01/31 12:50:13;;;;;;;6.03;1.38;;;14.10;1.00;;;;;;5036253;28;20037;-87
2021/01/31 12:52:40;;;;;;;11.70;1.65;;;14.00;51.00;;;;;;5064137;28;20032;-87
2021/01/31 12:55:07;;;;;;;0.77;0.77;;;13.80;99.90;;;;;;5063514;28;20094;-87
2021/01/31 12:57:33;;;;;;;2.38;1.13;;;14.10;25.00;;;;;;5045790;28;20051;-88
2021/01/31 12:59:59;;;;;;;0.55;0.55;;;14.40;99.90;;;;;;5056319;28;20425;-88
2021/01/31 13:02:26;;;;;;;1.50;1.40;;;14.30;99.90;;;;;;5051065;28;20456;-87
2021/01/31 13:04:52;;;;;;;0.65;0.63;;;14.20;99.90;;;;;;5062655;28;20350;-86
2021/01/31 13:07:18;;;;;;;2.50;2.30;;;14.40;99.90;;;;;;5063225;28;20119;-87
2021/01/31 13:09:44;;;;;;;1.58;1.48;;;14.30;74.20;;;;;;5045268;28;20107;-86
2021/01/31 13:12:09;;;;;;;3.53;1.77;;;14.10;65.30;;;;;;5064559;28;20028;-86
2021/01/31 13:14:39;;;;;;;1.30;0.77;;;14.20;83.00;;;;;;5050275;28;20028;-86
2021/01/31 13:17:05;;;;;;;0.73;0.73;;;14.10;89.90;;;;;;5067722;28;20405;-87
2021/01/31 13:19:31;;;;;;;0.40;0.40;;;13.90;50.20;;;;;;5068264;28;20041;-86
2021/01/31 13:21:57;;;;;;;0.40;0.40;;;13.90;99.90;;;;;;5068392;28;20182;-87
2021/01/31 13:24:23;;;;;;;0.10;0.10;;;13.70;69.00;;;;;;5067934;28;20103;-86